Vladimir Tikhonov — A8IA6 — position and weather

sailwx.info

Track history (hours):
 
Tides and Currents Weather Stations Pressure Air Temp Water Temp Dewpoint Dewpoint Depression Visibility Wind Speed Wind Dir Waves Ship Positions

Vladimir Tikhonov

Last reported at 2018-Jul-13 20:04 UTC. Time now 2018-Jul-21 07:47 UTC.
Position N 27°16' W 015°54'.

Length 280 m; draft 9.2 m.

Type: Ship. MMSI: 636012814.

Date/timePositionNaut miles runAvg speedWind from/ knotsBaromVisibWave heightAir tempDewpointWater temp
2018-Jul-13 20:04N 27°16' W 015°54'1 2.2
2018-Jul-13 19:46N 27°16' W 015°54'2 2.3
2018-Jul-13 18:57N 27°16' W 015°51'37 4.2
2018-Jul-13 10:09N 27°39' W 015°19'215.6
2018-Jul-13 10:00N 27°41' W 015°18'815.0
2018-Jul-13 09:30N 27°48' W 015°15'714.6
2018-Jul-13 09:00N 27°56' W 015°16'714.8
2018-Jul-13 08:30N 28°03' W 015°19'713.9
2018-Jul-13 08:00N 28°09' W 015°23'1 1.4
2018-Jul-13 07:22N 28°08' W 015°24'0 0.1
2018-Jul-13 06:52N 28°08' W 015°24'0 0.0
2018-Jul-13 06:25N 28°08' W 015°24'0 0.0
2018-Jul-13 05:55N 28°08' W 015°24'0 0.0
2018-Jul-13 05:22N 28°08' W 015°24'0 0.0
2018-Jul-13 04:55N 28°08' W 015°24'0 0.0
2018-Jul-13 04:25N 28°08' W 015°24'0 0.0
2018-Jul-13 03:55N 28°08' W 015°24'0 0.0
2018-Jul-13 03:28N 28°08' W 015°24'0 0.0
2018-Jul-13 02:58N 28°08' W 015°24'0 0.0
2018-Jul-13 02:28N 28°08' W 015°24'0 0.0
2018-Jul-13 01:58N 28°08' W 015°24'0 0.1
2018-Jul-13 01:28N 28°08' W 015°24'0 0.1
2018-Jul-13 00:58N 28°08' W 015°24'0 0.1
2018-Jul-13 00:28N 28°08' W 015°24'0 0.1
2018-Jul-12 23:58N 28°08' W 015°24'0 0.0
2018-Jul-12 23:28N 28°08' W 015°24'0 0.0
2018-Jul-12 22:58N 28°08' W 015°24'0 0.0
2018-Jul-12 22:28N 28°08' W 015°24'0 0.0
2018-Jul-12 21:58N 28°08' W 015°24'0 0.0
2018-Jul-12 21:28N 28°08' W 015°24'0 0.0
2018-Jul-12 20:58N 28°08' W 015°24'0 0.0
2018-Jul-12 20:19N 28°08' W 015°24'0 0.0
2018-Jul-12 19:46N 28°08' W 015°24'0 0.0
2018-Jul-12 19:19N 28°08' W 015°24'0 0.0
2018-Jul-12 18:52N 28°08' W 015°24'0 0.1
2018-Jul-12 18:22N 28°08' W 015°24'0 0.1
2018-Jul-12 17:52N 28°08' W 015°24'0 0.0
2018-Jul-12 17:22N 28°08' W 015°24'0 0.0
2018-Jul-12 16:52N 28°08' W 015°24'0 0.0
2018-Jul-12 16:25N 28°08' W 015°24'0 0.0
2018-Jul-12 15:55N 28°08' W 015°24'0 0.0
2018-Jul-12 15:25N 28°08' W 015°24'0 0.1
2018-Jul-12 14:52N 28°08' W 015°24'0 0.1
2018-Jul-12 14:25N 28°08' W 015°24'0 0.1
2018-Jul-12 13:55N 28°08' W 015°24'0 0.1
2018-Jul-12 13:25N 28°08' W 015°24'0 0.1
2018-Jul-12 12:58N 28°08' W 015°24'0 0.0
2018-Jul-12 12:28N 28°08' W 015°24'0 0.0
2018-Jul-12 11:58N 28°08' W 015°24'0 0.0
2018-Jul-12 11:28N 28°08' W 015°24'0 0.0
2018-Jul-12 10:58N 28°08' W 015°24'0 0.0
2018-Jul-12 10:28N 28°08' W 015°24'0 0.0
2018-Jul-12 09:58N 28°08' W 015°24'0 0.0
2018-Jul-12 09:16N 28°08' W 015°24'0 0.0
2018-Jul-12 08:58N 28°08' W 015°24'0 0.0
2018-Jul-12 08:28N 28°08' W 015°24'0 0.3
2018-Jul-12 07:58N 28°08' W 015°24'0 0.6
2018-Jul-12 07:30N 28°08' W 015°23'2 4.7
2018-Jul-12 07:00N 28°09' W 015°21'4 9.1
2018-Jul-12 06:30N 28°12' W 015°18'815.2
2018-Jul-12 06:00N 28°19' W 015°13'5 9.6
2018-Jul-12 05:30N 28°24' W 015°12'1 1.0
2018-Jul-12 05:00N 28°24' W 015°11'1 1.9
2018-Jul-12 04:30N 28°25' W 015°11'1 1.7
2018-Jul-12 04:00N 28°25' W 015°10'3 5.1
2018-Jul-12 03:30N 28°28' W 015°09'714.5
2018-Jul-12 03:00N 28°34' W 015°06'715.0
2018-Jul-12 02:30N 28°41' W 015°03'715.2
2018-Jul-12 02:00N 28°48' W 014°59'815.5
2018-Jul-12 01:30N 28°56' W 014°56'715.2
2018-Jul-12 01:01N 29°02' W 014°53'815.2
2018-Jul-12 00:29N 29°10' W 014°49'1214.9
2018-Jul-11 23:42N 29°21' W 014°44'414.9
2018-Jul-11 23:27N 29°24' W 014°43'715.0
2018-Jul-11 23:00N 29°30' W 014°40'815.3
2018-Jul-11 22:28N 29°38' W 014°36'715.3
2018-Jul-11 22:00N 29°44' W 014°33'715.1
2018-Jul-11 21:30N 29°51' W 014°30'1614.9
2018-Jul-11 20:25N 30°06' W 014°23'614.6
2018-Jul-11 20:00N 30°12' W 014°20'8114.8
2018-Jul-11 14:33N 31°26' W 013°41'216.1
2018-Jul-11 14:26N 31°27' W 013°40'17 3.6
2018-Jul-11 09:48N 31°41' W 013°29'10 1.8
2018-Jul-11 04:18N 31°47' W 013°19'2 2.2
2018-Jul-11 03:37N 31°48' W 013°18'8 2.0
2018-Jul-10 23:42N 31°53' W 013°11'0 2.0
2018-Jul-10 23:30N 31°54' W 013°11'4 1.9
2018-Jul-10 21:25N 31°56' W 013°07'1 1.9
2018-Jul-10 20:57N 31°57' W 013°06'1 1.9
2018-Jul-10 20:30N 31°58' W 013°06'1 2.0
2018-Jul-10 19:57N 31°58' W 013°05'1 2.0
2018-Jul-10 19:30N 31°59' W 013°04'1 2.0
2018-Jul-10 18:52N 31°60' W 013°03'1 2.0
2018-Jul-10 18:30N 32°00' W 013°02'1 2.1
2018-Jul-10 17:57N 32°01' W 013°01'1 2.1
2018-Jul-10 17:29N 32°01' W 012°60'1 2.1
2018-Jul-10 17:01N 32°02' W 012°59'1 2.1
2018-Jul-10 16:25N 32°03' W 012°58'1 2.1
2018-Jul-10 16:00N 32°04' W 012°57'1 2.0
2018-Jul-10 15:28N 32°04' W 012°56'1 1.9
2018-Jul-10 14:50N 32°05' W 012°55'1 1.9
2018-Jul-10 14:29N 32°05' W 012°55'1 1.8
2018-Jul-10 13:46N 32°06' W 012°53'0 1.7
2018-Jul-10 13:30N 32°06' W 012°53'1 1.8
2018-Jul-10 12:59N 32°07' W 012°52'1 1.7
2018-Jul-10 12:30N 32°07' W 012°51'1 1.7
2018-Jul-10 11:56N 32°08' W 012°50'1 1.8
2018-Jul-10 11:27N 32°08' W 012°49'1 1.7
2018-Jul-10 10:59N 32°09' W 012°49'1 1.6
2018-Jul-10 10:30N 32°09' W 012°48'1 1.6
2018-Jul-10 10:00N 32°10' W 012°47'1 1.6
2018-Jul-10 09:27N 32°10' W 012°46'1 1.6
2018-Jul-10 09:00N 32°11' W 012°45'1 1.5
2018-Jul-10 08:29N 32°11' W 012°45'1 1.4
2018-Jul-10 07:55N 32°11' W 012°44'1 2.6
2018-Jul-10 07:27N 32°12' W 012°43'511.5
2018-Jul-10 07:01N 32°16' W 012°40'714.8
2018-Jul-10 06:30N 32°23' W 012°36'714.8
2018-Jul-10 06:00N 32°30' W 012°32'814.8
2018-Jul-10 05:27N 32°37' W 012°27'1114.7
2018-Jul-10 04:43N 32°46' W 012°21'514.7
2018-Jul-10 04:23N 32°51' W 012°18'914.7
2018-Jul-10 03:45N 32°59' W 012°13'514.8
2018-Jul-10 03:25N 33°03' W 012°10'1414.8
2018-Jul-10 02:26N 33°16' W 012°02'11514.8
2018-Jul-09 18:37N 34°57' W 010°56'414.7
2018-Jul-09 18:21N 35°01' W 010°54'12714.7
2018-Jul-09 09:42N 36°53' W 009°40'414.5
2018-Jul-09 09:25N 36°57' W 009°42'1914.6
2018-Jul-09 08:06N 37°16' W 009°47'216.6
2018-Jul-09 07:59N 37°18' W 009°48'916.2
2018-Jul-09 07:26N 37°26' W 009°50'614.5
2018-Jul-09 07:01N 37°32' W 009°52'814.6
2018-Jul-09 06:29N 37°40' W 009°54'714.4
2018-Jul-09 06:01N 37°46' W 009°56'714.2
2018-Jul-09 05:30N 37°53' W 009°58'713.8
2018-Jul-09 05:00N 38°00' W 010°00'713.9
2018-Jul-09 04:30N 38°07' W 010°03'714.4
2018-Jul-09 04:00N 38°14' W 010°04'714.7
2018-Jul-09 03:30N 38°21' W 010°06'714.6
2018-Jul-09 03:00N 38°28' W 010°09'714.4
2018-Jul-09 02:30N 38°35' W 010°11'714.5
2018-Jul-09 02:00N 38°42' W 010°12'715.0
2018-Jul-09 01:30N 38°50' W 010°12'714.9
2018-Jul-09 01:00N 38°57' W 010°12'714.9
2018-Jul-09 00:30N 39°05' W 010°12'815.0
2018-Jul-09 00:00N 39°12' W 010°12'714.4
2018-Jul-08 23:30N 39°20' W 010°12'714.7
2018-Jul-08 23:00N 39°27' W 010°12'714.7
2018-Jul-08 22:30N 39°34' W 010°12'714.7
2018-Jul-08 22:00N 39°42' W 010°12'714.5
2018-Jul-08 21:30N 39°49' W 010°12'1714.8
2018-Jul-08 20:21N 40°06' W 010°12'514.6
2018-Jul-08 20:00N 40°11' W 010°12'714.6
2018-Jul-08 19:30N 40°18' W 010°12'47214.0
2018-Jul-07 09:48N 47°46' W 006°44'5214.2
2018-Jul-07 06:08N 48°32' W 006°08'314.4
2018-Jul-07 05:55N 48°35' W 006°05'614.7
2018-Jul-07 05:30N 48°40' W 006°01'715.2
2018-Jul-07 05:00N 48°46' W 005°55'815.1
2018-Jul-07 04:31N 48°53' W 005°50'815.0
2018-Jul-07 04:00N 48°58' W 005°41'815.4
2018-Jul-07 03:29N 49°02' W 005°31'715.2
2018-Jul-07 03:01N 49°06' W 005°21'815.5
2018-Jul-07 02:29N 49°10' W 005°10'715.2
2018-Jul-07 02:00N 49°13' W 005°01'815.0
2018-Jul-07 01:28N 49°18' W 004°50'714.8
2018-Jul-07 01:01N 49°21' W 004°41'714.6
2018-Jul-07 00:31N 49°25' W 004°32'714.3
2018-Jul-07 00:00N 49°29' W 004°22'1913.9
2018-Jul-06 22:37N 49°39' W 003°57'213.5
2018-Jul-06 22:29N 49°40' W 003°54'713.8
2018-Jul-06 22:00N 49°43' W 003°46'713.9
2018-Jul-06 21:30N 49°47' W 003°36'714.3
2018-Jul-06 21:00N 49°50' W 003°27'714.5
2018-Jul-06 20:31N 49°54' W 003°17'814.9
2018-Jul-06 20:00N 49°57' W 003°06'815.3
2018-Jul-06 19:30N 49°59' W 002°55'815.5
2018-Jul-06 19:00N 50°02' W 002°44'815.6
2018-Jul-06 18:30N 50°05' W 002°33'815.7
2018-Jul-06 18:00N 50°08' W 002°22'1015.4
2018-Jul-06 17:22N 50°12' W 002°08'614.9
2018-Jul-06 16:58N 50°14' W 001°59'714.5
2018-Jul-06 16:30N 50°17' W 001°49'714.0
2018-Jul-06 16:00N 50°19' W 001°39'713.4
2018-Jul-06 15:29N 50°22' W 001°29'613.0
2018-Jul-06 15:00N 50°24' W 001°20'612.6
2018-Jul-06 14:30N 50°27' W 001°11'612.3
2018-Jul-06 14:00N 50°29' W 001°02'611.2
2018-Jul-06 13:30N 50°34' W 000°58'611.4
2018-Jul-06 13:00N 50°40' W 000°58'612.7
2018-Jul-06 12:30N 50°44' W 001°05'816.4
2018-Jul-06 12:00N 50°47' W 001°17'4 7.2
2018-Jul-06 11:30N 50°50' W 001°19'0 0.8
2018-Jul-06 10:58N 50°50' W 001°20'0 0.0
2018-Jul-06 10:28N 50°50' W 001°20'0 0.0
2018-Jul-06 09:58N 50°50' W 001°20'0 0.0
2018-Jul-06 09:28N 50°50' W 001°20'0 0.0
2018-Jul-06 08:58N 50°50' W 001°20'0 0.0
2018-Jul-06 08:28N 50°50' W 001°20'0 0.0
2018-Jul-06 07:58N 50°50' W 001°20'0 0.0
2018-Jul-06 07:28N 50°50' W 001°20'0 0.0
2018-Jul-06 06:58N 50°50' W 001°20'0 0.0
2018-Jul-06 06:28N 50°50' W 001°20'0 0.0
2018-Jul-06 05:58N 50°50' W 001°20'0 0.0
2018-Jul-06 05:28N 50°50' W 001°20'0 0.0
2018-Jul-06 04:58N 50°50' W 001°20'0 0.0
2018-Jul-06 04:28N 50°50' W 001°20'0 0.0
2018-Jul-06 03:58N 50°50' W 001°20'0 0.0
2018-Jul-06 03:28N 50°50' W 001°20'0 0.0
2018-Jul-06 02:58N 50°50' W 001°20'0 0.0
2018-Jul-06 02:28N 50°50' W 001°20'0 0.0
2018-Jul-06 01:58N 50°50' W 001°20'0 0.0
2018-Jul-06 01:28N 50°50' W 001°20'0 0.0
2018-Jul-06 00:58N 50°50' W 001°20'0 0.0
2018-Jul-06 00:28N 50°50' W 001°20'0 0.0
2018-Jul-05 23:58N 50°50' W 001°20'0 0.0
2018-Jul-05 23:28N 50°50' W 001°20'0 0.0
2018-Jul-05 22:58N 50°50' W 001°20'0 0.0
2018-Jul-05 22:28N 50°50' W 001°20'0 0.0
2018-Jul-05 21:58N 50°50' W 001°20'0 0.0
2018-Jul-05 21:28N 50°50' W 001°20'0 0.0
2018-Jul-05 20:58N 50°50' W 001°20'0 0.0
2018-Jul-05 20:28N 50°50' W 001°20'0 0.0
2018-Jul-05 19:58N 50°50' W 001°20'0 0.0
2018-Jul-05 19:28N 50°50' W 001°20'0 0.0
2018-Jul-05 18:58N 50°50' W 001°20'0 0.0
2018-Jul-05 18:28N 50°50' W 001°20'0 0.0
2018-Jul-05 17:58N 50°50' W 001°20'0 0.0
2018-Jul-05 17:28N 50°50' W 001°20'0 0.0
2018-Jul-05 16:58N 50°50' W 001°20'0 0.0
2018-Jul-05 16:28N 50°50' W 001°20'0 0.0
2018-Jul-05 15:58N 50°50' W 001°20'0 0.0
2018-Jul-05 15:28N 50°50' W 001°20'0 0.0
2018-Jul-05 14:58N 50°50' W 001°20'0 0.0
2018-Jul-05 13:58N 50°50' W 001°20'0 0.0
2018-Jul-05 13:28N 50°50' W 001°20'0 0.0
2018-Jul-05 12:58N 50°50' W 001°20'0 0.0
2018-Jul-05 12:28N 50°50' W 001°20'0 0.0
2018-Jul-05 11:58N 50°50' W 001°20'0 0.0
2018-Jul-05 11:28N 50°50' W 001°20'0 0.0
2018-Jul-05 10:58N 50°50' W 001°20'0 0.0
2018-Jul-05 10:28N 50°50' W 001°20'0 0.0
2018-Jul-05 09:58N 50°50' W 001°20'0 0.0
2018-Jul-05 09:28N 50°50' W 001°20'0 0.0
2018-Jul-05 08:58N 50°50' W 001°20'0 0.0
2018-Jul-05 08:28N 50°50' W 001°20'0 0.0
2018-Jul-05 07:58N 50°50' W 001°20'0 0.0
2018-Jul-05 07:28N 50°50' W 001°20'0 0.0
2018-Jul-05 06:58N 50°50' W 001°20'0 0.0
2018-Jul-05 06:28N 50°50' W 001°20'0 0.0
2018-Jul-05 05:58N 50°50' W 001°20'0 0.0
2018-Jul-05 05:28N 50°50' W 001°20'0 0.0
2018-Jul-05 04:58N 50°50' W 001°20'0 0.0
2018-Jul-05 04:28N 50°50' W 001°20'0 0.0
2018-Jul-05 03:58N 50°50' W 001°20'0 0.0
2018-Jul-05 03:28N 50°50' W 001°20'0 0.0
2018-Jul-05 02:58N 50°50' W 001°20'0 0.0
2018-Jul-05 02:28N 50°50' W 001°20'0 0.0
2018-Jul-05 01:58N 50°50' W 001°20'0 0.0
2018-Jul-05 01:28N 50°50' W 001°20'0 0.0
2018-Jul-05 00:58N 50°50' W 001°20'0 0.0
2018-Jul-05 00:28N 50°50' W 001°20'0 0.0
2018-Jul-04 23:58N 50°50' W 001°20'0 0.0
2018-Jul-04 23:28N 50°50' W 001°20'0 0.0
2018-Jul-04 22:58N 50°50' W 001°20'0 0.0
2018-Jul-04 22:28N 50°50' W 001°20'0 0.0
2018-Jul-04 21:58N 50°50' W 001°20'0 0.0
2018-Jul-04 21:28N 50°50' W 001°20'0 0.0
2018-Jul-04 20:58N 50°50' W 001°20'0 0.0
2018-Jul-04 20:28N 50°50' W 001°20'0 0.0
2018-Jul-04 20:00N 50°50' W 001°20'0 0.0
2018-Jul-04 19:28N 50°50' W 001°20'0 0.0
2018-Jul-04 18:58N 50°50' W 001°20'0 0.0
2018-Jul-04 18:28N 50°50' W 001°20'0 0.0
2018-Jul-04 17:58N 50°50' W 001°20'0 0.0
2018-Jul-04 17:28N 50°50' W 001°20'0 0.0
2018-Jul-04 16:58N 50°50' W 001°20'0 0.0
2018-Jul-04 16:28N 50°50' W 001°20'0 0.0
2018-Jul-04 15:58N 50°50' W 001°20'0 0.0
2018-Jul-04 15:28N 50°50' W 001°20'0 0.0
2018-Jul-04 14:58N 50°50' W 001°20'0 0.0
2018-Jul-04 14:28N 50°50' W 001°20'0 0.0
2018-Jul-04 13:58N 50°50' W 001°20'0 0.0
2018-Jul-04 13:28N 50°50' W 001°20'0 0.0
2018-Jul-04 12:58N 50°50' W 001°20'0 0.0
2018-Jul-04 12:28N 50°50' W 001°20'0 0.0
2018-Jul-04 11:58N 50°50' W 001°20'0 0.0
2018-Jul-04 11:28N 50°50' W 001°20'0 0.0
2018-Jul-04 10:58N 50°50' W 001°20'0 0.0
2018-Jul-04 10:28N 50°50' W 001°20'0 0.0
2018-Jul-04 09:58N 50°50' W 001°20'0 0.0
2018-Jul-04 09:28N 50°50' W 001°20'0 0.0
2018-Jul-04 08:58N 50°50' W 001°20'0 0.0
2018-Jul-04 08:28N 50°50' W 001°20'0 0.0
2018-Jul-04 07:58N 50°50' W 001°20'0 0.0
2018-Jul-04 07:28N 50°50' W 001°20'0 0.0
2018-Jul-04 06:58N 50°50' W 001°20'0 0.0
2018-Jul-04 06:28N 50°50' W 001°20'0 0.0
2018-Jul-04 05:58N 50°50' W 001°20'0 0.0
2018-Jul-04 05:28N 50°50' W 001°20'0 0.0
2018-Jul-04 04:58N 50°50' W 001°20'0 0.0
2018-Jul-04 04:28N 50°50' W 001°20'0 0.0
2018-Jul-04 03:58N 50°50' W 001°20'0 0.0
2018-Jul-04 03:28N 50°50' W 001°20'0 0.0
2018-Jul-04 02:58N 50°50' W 001°20'0 0.0
2018-Jul-04 02:28N 50°50' W 001°20'0 0.0
2018-Jul-04 01:58N 50°50' W 001°20'0 0.0
2018-Jul-04 01:28N 50°50' W 001°20'0 0.0
2018-Jul-04 00:58N 50°50' W 001°20'0 0.0
2018-Jul-04 00:28N 50°50' W 001°20'0 0.0
2018-Jul-03 23:58N 50°50' W 001°20'0 0.0
2018-Jul-03 23:28N 50°50' W 001°20'0 0.0
2018-Jul-03 22:58N 50°50' W 001°20'0 0.0
2018-Jul-03 22:28N 50°50' W 001°20'0 0.0
2018-Jul-03 21:58N 50°50' W 001°20'0 0.0
2018-Jul-03 21:28N 50°50' W 001°20'0 0.0
2018-Jul-03 20:58N 50°50' W 001°20'0 0.0
2018-Jul-03 20:28N 50°50' W 001°20'  
Track history (hours):
 
Tides and Currents Weather Stations Pressure Air Temp Water Temp Dewpoint Dewpoint Depression Visibility Wind Speed Wind Dir Waves Ship Positions

Vladimir Tikhonov

Last reported at 2018-Jul-13 20:04 UTC. Time now 2018-Jul-21 07:47 UTC.
Position N 27°16' W 015°54'.

Length 280 m; draft 9.2 m.

Type: Ship. MMSI: 636012814.

Date/timePositionNaut miles runAvg speedWind from/ knotsBaromVisibWave heightAir tempDewpointWater temp
2018-Jul-13 20:04N 27°16' W 015°54'1 2.2
2018-Jul-13 19:46N 27°16' W 015°54'2 2.3
2018-Jul-13 18:57N 27°16' W 015°51'37 4.2
2018-Jul-13 10:09N 27°39' W 015°19'215.6
2018-Jul-13 10:00N 27°41' W 015°18'815.0
2018-Jul-13 09:30N 27°48' W 015°15'714.6
2018-Jul-13 09:00N 27°56' W 015°16'714.8
2018-Jul-13 08:30N 28°03' W 015°19'713.9
2018-Jul-13 08:00N 28°09' W 015°23'1 1.4
2018-Jul-13 07:22N 28°08' W 015°24'0 0.1
2018-Jul-13 06:52N 28°08' W 015°24'0 0.0
2018-Jul-13 06:25N 28°08' W 015°24'0 0.0
2018-Jul-13 05:55N 28°08' W 015°24'0 0.0
2018-Jul-13 05:22N 28°08' W 015°24'0 0.0
2018-Jul-13 04:55N 28°08' W 015°24'0 0.0
2018-Jul-13 04:25N 28°08' W 015°24'0 0.0
2018-Jul-13 03:55N 28°08' W 015°24'0 0.0
2018-Jul-13 03:28N 28°08' W 015°24'0 0.0
2018-Jul-13 02:58N 28°08' W 015°24'0 0.0
2018-Jul-13 02:28N 28°08' W 015°24'0 0.0
2018-Jul-13 01:58N 28°08' W 015°24'0 0.1
2018-Jul-13 01:28N 28°08' W 015°24'0 0.1
2018-Jul-13 00:58N 28°08' W 015°24'0 0.1
2018-Jul-13 00:28N 28°08' W 015°24'0 0.1
2018-Jul-12 23:58N 28°08' W 015°24'0 0.0
2018-Jul-12 23:28N 28°08' W 015°24'0 0.0
2018-Jul-12 22:58N 28°08' W 015°24'0 0.0
2018-Jul-12 22:28N 28°08' W 015°24'0 0.0
2018-Jul-12 21:58N 28°08' W 015°24'0 0.0
2018-Jul-12 21:28N 28°08' W 015°24'0 0.0
2018-Jul-12 20:58N 28°08' W 015°24'0 0.0
2018-Jul-12 20:19N 28°08' W 015°24'0 0.0
2018-Jul-12 19:46N 28°08' W 015°24'0 0.0
2018-Jul-12 19:19N 28°08' W 015°24'0 0.0
2018-Jul-12 18:52N 28°08' W 015°24'0 0.1
2018-Jul-12 18:22N 28°08' W 015°24'0 0.1
2018-Jul-12 17:52N 28°08' W 015°24'0 0.0
2018-Jul-12 17:22N 28°08' W 015°24'0 0.0
2018-Jul-12 16:52N 28°08' W 015°24'0 0.0
2018-Jul-12 16:25N 28°08' W 015°24'0 0.0
2018-Jul-12 15:55N 28°08' W 015°24'0 0.0
2018-Jul-12 15:25N 28°08' W 015°24'0 0.1
2018-Jul-12 14:52N 28°08' W 015°24'0 0.1
2018-Jul-12 14:25N 28°08' W 015°24'0 0.1
2018-Jul-12 13:55N 28°08' W 015°24'0 0.1
2018-Jul-12 13:25N 28°08' W 015°24'0 0.1
2018-Jul-12 12:58N 28°08' W 015°24'0 0.0
2018-Jul-12 12:28N 28°08' W 015°24'0 0.0
2018-Jul-12 11:58N 28°08' W 015°24'0 0.0
2018-Jul-12 11:28N 28°08' W 015°24'0 0.0
2018-Jul-12 10:58N 28°08' W 015°24'0 0.0
2018-Jul-12 10:28N 28°08' W 015°24'0 0.0
2018-Jul-12 09:58N 28°08' W 015°24'0 0.0
2018-Jul-12 09:16N 28°08' W 015°24'0 0.0
2018-Jul-12 08:58N 28°08' W 015°24'0 0.0
2018-Jul-12 08:28N 28°08' W 015°24'0 0.3
2018-Jul-12 07:58N 28°08' W 015°24'0 0.6
2018-Jul-12 07:30N 28°08' W 015°23'2 4.7
2018-Jul-12 07:00N 28°09' W 015°21'4 9.1
2018-Jul-12 06:30N 28°12' W 015°18'815.2
2018-Jul-12 06:00N 28°19' W 015°13'5 9.6
2018-Jul-12 05:30N 28°24' W 015°12'1 1.0
2018-Jul-12 05:00N 28°24' W 015°11'1 1.9
2018-Jul-12 04:30N 28°25' W 015°11'1 1.7
2018-Jul-12 04:00N 28°25' W 015°10'3 5.1
2018-Jul-12 03:30N 28°28' W 015°09'714.5
2018-Jul-12 03:00N 28°34' W 015°06'715.0
2018-Jul-12 02:30N 28°41' W 015°03'715.2
2018-Jul-12 02:00N 28°48' W 014°59'815.5
2018-Jul-12 01:30N 28°56' W 014°56'715.2
2018-Jul-12 01:01N 29°02' W 014°53'815.2
2018-Jul-12 00:29N 29°10' W 014°49'1214.9
2018-Jul-11 23:42N 29°21' W 014°44'414.9
2018-Jul-11 23:27N 29°24' W 014°43'715.0
2018-Jul-11 23:00N 29°30' W 014°40'815.3
2018-Jul-11 22:28N 29°38' W 014°36'715.3
2018-Jul-11 22:00N 29°44' W 014°33'715.1
2018-Jul-11 21:30N 29°51' W 014°30'1614.9
2018-Jul-11 20:25N 30°06' W 014°23'614.6
2018-Jul-11 20:00N 30°12' W 014°20'8114.8
2018-Jul-11 14:33N 31°26' W 013°41'216.1
2018-Jul-11 14:26N 31°27' W 013°40'17 3.6
2018-Jul-11 09:48N 31°41' W 013°29'10 1.8
2018-Jul-11 04:18N 31°47' W 013°19'2 2.2
2018-Jul-11 03:37N 31°48' W 013°18'8 2.0
2018-Jul-10 23:42N 31°53' W 013°11'0 2.0
2018-Jul-10 23:30N 31°54' W 013°11'4 1.9
2018-Jul-10 21:25N 31°56' W 013°07'1 1.9
2018-Jul-10 20:57N 31°57' W 013°06'1 1.9
2018-Jul-10 20:30N 31°58' W 013°06'1 2.0
2018-Jul-10 19:57N 31°58' W 013°05'1 2.0
2018-Jul-10 19:30N 31°59' W 013°04'1 2.0
2018-Jul-10 18:52N 31°60' W 013°03'1 2.0
2018-Jul-10 18:30N 32°00' W 013°02'1 2.1
2018-Jul-10 17:57N 32°01' W 013°01'1 2.1
2018-Jul-10 17:29N 32°01' W 012°60'1 2.1
2018-Jul-10 17:01N 32°02' W 012°59'1 2.1
2018-Jul-10 16:25N 32°03' W 012°58'1 2.1
2018-Jul-10 16:00N 32°04' W 012°57'1 2.0
2018-Jul-10 15:28N 32°04' W 012°56'1 1.9
2018-Jul-10 14:50N 32°05' W 012°55'1 1.9
2018-Jul-10 14:29N 32°05' W 012°55'1 1.8
2018-Jul-10 13:46N 32°06' W 012°53'0 1.7
2018-Jul-10 13:30N 32°06' W 012°53'1 1.8
2018-Jul-10 12:59N 32°07' W 012°52'1 1.7
2018-Jul-10 12:30N 32°07' W 012°51'1 1.7
2018-Jul-10 11:56N 32°08' W 012°50'1 1.8
2018-Jul-10 11:27N 32°08' W 012°49'1 1.7
2018-Jul-10 10:59N 32°09' W 012°49'1 1.6
2018-Jul-10 10:30N 32°09' W 012°48'1 1.6
2018-Jul-10 10:00N 32°10' W 012°47'1 1.6
2018-Jul-10 09:27N 32°10' W 012°46'1 1.6
2018-Jul-10 09:00N 32°11' W 012°45'1 1.5
2018-Jul-10 08:29N 32°11' W 012°45'1 1.4
2018-Jul-10 07:55N 32°11' W 012°44'1 2.6
2018-Jul-10 07:27N 32°12' W 012°43'511.5
2018-Jul-10 07:01N 32°16' W 012°40'714.8
2018-Jul-10 06:30N 32°23' W 012°36'714.8
2018-Jul-10 06:00N 32°30' W 012°32'814.8
2018-Jul-10 05:27N 32°37' W 012°27'1114.7
2018-Jul-10 04:43N 32°46' W 012°21'514.7
2018-Jul-10 04:23N 32°51' W 012°18'914.7
2018-Jul-10 03:45N 32°59' W 012°13'514.8
2018-Jul-10 03:25N 33°03' W 012°10'1414.8
2018-Jul-10 02:26N 33°16' W 012°02'11514.8
2018-Jul-09 18:37N 34°57' W 010°56'414.7
2018-Jul-09 18:21N 35°01' W 010°54'12714.7
2018-Jul-09 09:42N 36°53' W 009°40'414.5
2018-Jul-09 09:25N 36°57' W 009°42'1914.6
2018-Jul-09 08:06N 37°16' W 009°47'216.6
2018-Jul-09 07:59N 37°18' W 009°48'916.2
2018-Jul-09 07:26N 37°26' W 009°50'614.5
2018-Jul-09 07:01N 37°32' W 009°52'814.6
2018-Jul-09 06:29N 37°40' W 009°54'714.4
2018-Jul-09 06:01N 37°46' W 009°56'714.2
2018-Jul-09 05:30N 37°53' W 009°58'713.8
2018-Jul-09 05:00N 38°00' W 010°00'713.9
2018-Jul-09 04:30N 38°07' W 010°03'714.4
2018-Jul-09 04:00N 38°14' W 010°04'714.7
2018-Jul-09 03:30N 38°21' W 010°06'714.6
2018-Jul-09 03:00N 38°28' W 010°09'714.4
2018-Jul-09 02:30N 38°35' W 010°11'714.5
2018-Jul-09 02:00N 38°42' W 010°12'715.0
2018-Jul-09 01:30N 38°50' W 010°12'714.9
2018-Jul-09 01:00N 38°57' W 010°12'714.9
2018-Jul-09 00:30N 39°05' W 010°12'815.0
2018-Jul-09 00:00N 39°12' W 010°12'714.4
2018-Jul-08 23:30N 39°20' W 010°12'714.7
2018-Jul-08 23:00N 39°27' W 010°12'714.7
2018-Jul-08 22:30N 39°34' W 010°12'714.7
2018-Jul-08 22:00N 39°42' W 010°12'714.5
2018-Jul-08 21:30N 39°49' W 010°12'1714.8
2018-Jul-08 20:21N 40°06' W 010°12'514.6
2018-Jul-08 20:00N 40°11' W 010°12'714.6
2018-Jul-08 19:30N 40°18' W 010°12'47214.0
2018-Jul-07 09:48N 47°46' W 006°44'5214.2
2018-Jul-07 06:08N 48°32' W 006°08'314.4
2018-Jul-07 05:55N 48°35' W 006°05'614.7
2018-Jul-07 05:30N 48°40' W 006°01'715.2
2018-Jul-07 05:00N 48°46' W 005°55'815.1
2018-Jul-07 04:31N 48°53' W 005°50'815.0
2018-Jul-07 04:00N 48°58' W 005°41'815.4
2018-Jul-07 03:29N 49°02' W 005°31'715.2
2018-Jul-07 03:01N 49°06' W 005°21'815.5
2018-Jul-07 02:29N 49°10' W 005°10'715.2
2018-Jul-07 02:00N 49°13' W 005°01'815.0
2018-Jul-07 01:28N 49°18' W 004°50'714.8
2018-Jul-07 01:01N 49°21' W 004°41'714.6
2018-Jul-07 00:31N 49°25' W 004°32'714.3
2018-Jul-07 00:00N 49°29' W 004°22'1913.9
2018-Jul-06 22:37N 49°39' W 003°57'213.5
2018-Jul-06 22:29N 49°40' W 003°54'713.8
2018-Jul-06 22:00N 49°43' W 003°46'713.9
2018-Jul-06 21:30N 49°47' W 003°36'714.3
2018-Jul-06 21:00N 49°50' W 003°27'714.5
2018-Jul-06 20:31N 49°54' W 003°17'814.9
2018-Jul-06 20:00N 49°57' W 003°06'815.3
2018-Jul-06 19:30N 49°59' W 002°55'815.5
2018-Jul-06 19:00N 50°02' W 002°44'815.6
2018-Jul-06 18:30N 50°05' W 002°33'815.7
2018-Jul-06 18:00N 50°08' W 002°22'1015.4
2018-Jul-06 17:22N 50°12' W 002°08'614.9
2018-Jul-06 16:58N 50°14' W 001°59'714.5
2018-Jul-06 16:30N 50°17' W 001°49'714.0
2018-Jul-06 16:00N 50°19' W 001°39'713.4
2018-Jul-06 15:29N 50°22' W 001°29'613.0
2018-Jul-06 15:00N 50°24' W 001°20'612.6
2018-Jul-06 14:30N 50°27' W 001°11'612.3
2018-Jul-06 14:00N 50°29' W 001°02'611.2
2018-Jul-06 13:30N 50°34' W 000°58'611.4
2018-Jul-06 13:00N 50°40' W 000°58'612.7
2018-Jul-06 12:30N 50°44' W 001°05'816.4
2018-Jul-06 12:00N 50°47' W 001°17'4 7.2
2018-Jul-06 11:30N 50°50' W 001°19'0 0.8
2018-Jul-06 10:58N 50°50' W 001°20'0 0.0
2018-Jul-06 10:28N 50°50' W 001°20'0 0.0
2018-Jul-06 09:58N 50°50' W 001°20'0 0.0
2018-Jul-06 09:28N 50°50' W 001°20'0 0.0
2018-Jul-06 08:58N 50°50' W 001°20'0 0.0
2018-Jul-06 08:28N 50°50' W 001°20'0 0.0
2018-Jul-06 07:58N 50°50' W 001°20'0 0.0
2018-Jul-06 07:28N 50°50' W 001°20'0 0.0
2018-Jul-06 06:58N 50°50' W 001°20'0 0.0
2018-Jul-06 06:28N 50°50' W 001°20'0 0.0
2018-Jul-06 05:58N 50°50' W 001°20'0 0.0
2018-Jul-06 05:28N 50°50' W 001°20'0 0.0
2018-Jul-06 04:58N 50°50' W 001°20'0 0.0
2018-Jul-06 04:28N 50°50' W 001°20'0 0.0
2018-Jul-06 03:58N 50°50' W 001°20'0 0.0
2018-Jul-06 03:28N 50°50' W 001°20'0 0.0
2018-Jul-06 02:58N 50°50' W 001°20'0 0.0
2018-Jul-06 02:28N 50°50' W 001°20'0 0.0
2018-Jul-06 01:58N 50°50' W 001°20'0 0.0
2018-Jul-06 01:28N 50°50' W 001°20'0 0.0
2018-Jul-06 00:58N 50°50' W 001°20'0 0.0
2018-Jul-06 00:28N 50°50' W 001°20'0 0.0
2018-Jul-05 23:58N 50°50' W 001°20'0 0.0
2018-Jul-05 23:28N 50°50' W 001°20'0 0.0
2018-Jul-05 22:58N 50°50' W 001°20'0 0.0
2018-Jul-05 22:28N 50°50' W 001°20'0 0.0
2018-Jul-05 21:58N 50°50' W 001°20'0 0.0
2018-Jul-05 21:28N 50°50' W 001°20'0 0.0
2018-Jul-05 20:58N 50°50' W 001°20'0 0.0
2018-Jul-05 20:28N 50°50' W 001°20'0 0.0
2018-Jul-05 19:58N 50°50' W 001°20'0 0.0
2018-Jul-05 19:28N 50°50' W 001°20'0 0.0
2018-Jul-05 18:58N 50°50' W 001°20'0 0.0
2018-Jul-05 18:28N 50°50' W 001°20'0 0.0
2018-Jul-05 17:58N 50°50' W 001°20'0 0.0
2018-Jul-05 17:28N 50°50' W 001°20'0 0.0
2018-Jul-05 16:58N 50°50' W 001°20'0 0.0
2018-Jul-05 16:28N 50°50' W 001°20'0 0.0
2018-Jul-05 15:58N 50°50' W 001°20'0 0.0
2018-Jul-05 15:28N 50°50' W 001°20'0 0.0
2018-Jul-05 14:58N 50°50' W 001°20'0 0.0
2018-Jul-05 13:58N 50°50' W 001°20'0 0.0
2018-Jul-05 13:28N 50°50' W 001°20'0 0.0
2018-Jul-05 12:58N 50°50' W 001°20'0 0.0
2018-Jul-05 12:28N 50°50' W 001°20'0 0.0
2018-Jul-05 11:58N 50°50' W 001°20'0 0.0
2018-Jul-05 11:28N 50°50' W 001°20'0 0.0
2018-Jul-05 10:58N 50°50' W 001°20'0 0.0
2018-Jul-05 10:28N 50°50' W 001°20'0 0.0
2018-Jul-05 09:58N 50°50' W 001°20'0 0.0
2018-Jul-05 09:28N 50°50' W 001°20'0 0.0
2018-Jul-05 08:58N 50°50' W 001°20'0 0.0
2018-Jul-05 08:28N 50°50' W 001°20'0 0.0
2018-Jul-05 07:58N 50°50' W 001°20'0 0.0
2018-Jul-05 07:28N 50°50' W 001°20'0 0.0
2018-Jul-05 06:58N 50°50' W 001°20'0 0.0
2018-Jul-05 06:28N 50°50' W 001°20'0 0.0
2018-Jul-05 05:58N 50°50' W 001°20'0 0.0
2018-Jul-05 05:28N 50°50' W 001°20'0 0.0
2018-Jul-05 04:58N 50°50' W 001°20'0 0.0
2018-Jul-05 04:28N 50°50' W 001°20'0 0.0
2018-Jul-05 03:58N 50°50' W 001°20'0 0.0
2018-Jul-05 03:28N 50°50' W 001°20'0 0.0
2018-Jul-05 02:58N 50°50' W 001°20'0 0.0
2018-Jul-05 02:28N 50°50' W 001°20'0 0.0
2018-Jul-05 01:58N 50°50' W 001°20'0 0.0
2018-Jul-05 01:28N 50°50' W 001°20'0 0.0
2018-Jul-05 00:58N 50°50' W 001°20'0 0.0
2018-Jul-05 00:28N 50°50' W 001°20'0 0.0
2018-Jul-04 23:58N 50°50' W 001°20'0 0.0
2018-Jul-04 23:28N 50°50' W 001°20'0 0.0
2018-Jul-04 22:58N 50°50' W 001°20'0 0.0
2018-Jul-04 22:28N 50°50' W 001°20'0 0.0
2018-Jul-04 21:58N 50°50' W 001°20'0 0.0
2018-Jul-04 21:28N 50°50' W 001°20'0 0.0
2018-Jul-04 20:58N 50°50' W 001°20'0 0.0
2018-Jul-04 20:28N 50°50' W 001°20'0 0.0
2018-Jul-04 20:00N 50°50' W 001°20'0 0.0
2018-Jul-04 19:28N 50°50' W 001°20'0 0.0
2018-Jul-04 18:58N 50°50' W 001°20'0 0.0
2018-Jul-04 18:28N 50°50' W 001°20'0 0.0
2018-Jul-04 17:58N 50°50' W 001°20'0 0.0
2018-Jul-04 17:28N 50°50' W 001°20'0 0.0
2018-Jul-04 16:58N 50°50' W 001°20'0 0.0
2018-Jul-04 16:28N 50°50' W 001°20'0 0.0
2018-Jul-04 15:58N 50°50' W 001°20'0 0.0
2018-Jul-04 15:28N 50°50' W 001°20'0 0.0
2018-Jul-04 14:58N 50°50' W 001°20'0 0.0
2018-Jul-04 14:28N 50°50' W 001°20'0 0.0
2018-Jul-04 13:58N 50°50' W 001°20'0 0.0
2018-Jul-04 13:28N 50°50' W 001°20'0 0.0
2018-Jul-04 12:58N 50°50' W 001°20'0 0.0
2018-Jul-04 12:28N 50°50' W 001°20'0 0.0
2018-Jul-04 11:58N 50°50' W 001°20'0 0.0
2018-Jul-04 11:28N 50°50' W 001°20'0 0.0
2018-Jul-04 10:58N 50°50' W 001°20'0 0.0
2018-Jul-04 10:28N 50°50' W 001°20'0 0.0
2018-Jul-04 09:58N 50°50' W 001°20'0 0.0
2018-Jul-04 09:28N 50°50' W 001°20'0 0.0
2018-Jul-04 08:58N 50°50' W 001°20'0 0.0
2018-Jul-04 08:28N 50°50' W 001°20'0 0.0
2018-Jul-04 07:58N 50°50' W 001°20'0 0.0
2018-Jul-04 07:28N 50°50' W 001°20'0 0.0
2018-Jul-04 06:58N 50°50' W 001°20'0 0.0
2018-Jul-04 06:28N 50°50' W 001°20'0 0.0
2018-Jul-04 05:58N 50°50' W 001°20'0 0.0
2018-Jul-04 05:28N 50°50' W 001°20'0 0.0
2018-Jul-04 04:58N 50°50' W 001°20'0 0.0
2018-Jul-04 04:28N 50°50' W 001°20'0 0.0
2018-Jul-04 03:58N 50°50' W 001°20'0 0.0
2018-Jul-04 03:28N 50°50' W 001°20'0 0.0
2018-Jul-04 02:58N 50°50' W 001°20'0 0.0
2018-Jul-04 02:28N 50°50' W 001°20'0 0.0
2018-Jul-04 01:58N 50°50' W 001°20'0 0.0
2018-Jul-04 01:28N 50°50' W 001°20'0 0.0
2018-Jul-04 00:58N 50°50' W 001°20'0 0.0
2018-Jul-04 00:28N 50°50' W 001°20'0 0.0
2018-Jul-03 23:58N 50°50' W 001°20'0 0.0
2018-Jul-03 23:28N 50°50' W 001°20'0 0.0
2018-Jul-03 22:58N 50°50' W 001°20'0 0.0
2018-Jul-03 22:28N 50°50' W 001°20'0 0.0
2018-Jul-03 21:58N 50°50' W 001°20'0 0.0
2018-Jul-03 21:28N 50°50' W 001°20'0 0.0
2018-Jul-03 20:58N 50°50' W 001°20'0 0.0
2018-Jul-03 20:28N 50°50' W 001°20'  

Dump ship's entire track history